Time;durP1;ratioP1;P1;durP2;ratioP2;P2;SDS_P1;SDS_P2;PMS_P1;PMS_P2;Temp;Humidity;BMP_temperature;BMP_pressure;BME280_temperature;BME280_humidity;BME280_pressure;Samples;Min_cycle;Max_cycle;Signal;HPM_P1;HPM_P2
2023/01/22 00:00:05;;;;;;;29.00;10.20;;;;;;;1.63;100.00;99560.15;67779;1277;1016411;-59
2023/01/22 00:03:28;;;;;;;27.50;10.20;;;;;;;1.46;100.00;99564.16;67835;1277;1016419;-59
2023/01/22 00:06:31;;;;;;;31.90;11.80;;;;;;;1.39;100.00;99562.36;67824;1277;1016436;-59
2023/01/22 00:09:42;;;;;;;30.40;12.30;;;;;;;1.25;100.00;99566.98;65618;1279;5371008;-59
2023/01/22 00:12:45;;;;;;;;;;;;;;;1.11;100.00;99568.67;67839;1277;1016076;-59
2023/01/22 00:15:47;;;;;;;36.70;13.80;;;;;;;1.05;100.00;99569.95;67748;1277;1016459;-59
2023/01/22 00:18:49;;;;;;;33.60;12.80;;;;;;;0.99;100.00;99576.57;67782;1277;1016355;-59
2023/01/22 00:21:52;;;;;;;28.40;9.90;;;;;;;0.95;100.00;99578.66;67819;1277;1016981;-59
2023/01/22 00:24:54;;;;;;;32.90;11.80;;;;;;;0.93;100.00;99581.10;67815;1277;1016394;-59
2023/01/22 00:27:57;;;;;;;34.80;12.70;;;;;;;0.88;100.00;99574.60;67858;1277;1016229;-59
2023/01/22 00:30:59;;;;;;;31.50;11.00;;;;;;;0.81;100.00;99568.46;67810;1277;1016137;-59
2023/01/22 00:34:02;;;;;;;31.40;11.30;;;;;;;0.79;100.00;99574.51;67807;1277;1015900;-59
2023/01/22 00:37:04;;;;;;;31.50;10.90;;;;;;;0.82;100.00;99582.75;67834;1277;1016470;-59
2023/01/22 00:40:07;;;;;;;32.30;11.80;;;;;;;0.91;100.00;99584.57;67844;1278;1016371;-59
2023/01/22 00:43:09;;;;;;;;;;;;;;;1.04;100.00;99590.45;67759;1277;1016272;-59
2023/01/22 00:46:12;;;;;;;28.80;10.50;;;;;;;1.21;100.00;99583.57;67730;1277;1016256;-59
2023/01/22 00:49:14;;;;;;;29.70;10.70;;;;;;;1.23;100.00;99587.86;67735;1277;1016366;-59
2023/01/22 00:52:17;;;;;;;33.40;10.70;;;;;;;1.17;100.00;99590.84;67878;1277;1016124;-58
2023/01/22 00:55:19;;;;;;;29.30;10.30;;;;;;;1.09;100.00;99584.21;67853;1278;1017073;-59
2023/01/22 00:58:21;;;;;;;29.00;10.60;;;;;;;0.99;100.00;99586.89;67828;1277;1016286;-59
2023/01/22 01:01:24;;;;;;;28.10;9.90;;;;;;;0.89;100.00;99590.27;67820;1277;1016700;-59
2023/01/22 01:04:26;;;;;;;28.00;10.20;;;;;;;0.86;100.00;99594.76;67782;1277;1016283;-59
2023/01/22 01:07:29;;;;;;;29.80;10.00;;;;;;;0.84;100.00;99597.38;67888;1277;1016381;-59
2023/01/22 01:10:31;;;;;;;26.60;9.80;;;;;;;0.90;100.00;99610.74;67800;1277;1016487;-58
2023/01/22 01:13:36;;;;;;;27.60;9.30;;;;;;;1.00;100.00;99616.52;67779;1277;1016459;-59
2023/01/22 01:16:41;;;;;;;23.80;8.50;;;;;;;1.14;100.00;99614.48;67753;1277;1015924;-59
2023/01/22 01:19:44;;;;;;;23.40;8.00;;;;;;;1.11;100.00;99609.86;67816;1277;1016355;-59
2023/01/22 01:22:46;;;;;;;24.50;8.30;;;;;;;1.16;100.00;99607.39;67848;1277;1016517;-59
2023/01/22 01:25:49;;;;;;;23.90;8.00;;;;;;;1.14;100.00;99607.93;67872;1277;1019064;-59
2023/01/22 01:28:52;;;;;;;24.10;8.30;;;;;;;1.21;100.00;99608.90;67888;1277;1016080;-59
2023/01/22 01:31:56;;;;;;;23.00;8.20;;;;;;;1.29;100.00;99609.16;67781;1277;1016417;-59
2023/01/22 01:34:59;;;;;;;23.80;8.50;;;;;;;1.20;100.00;99606.83;67850;1277;1016437;-59
2023/01/22 01:38:01;;;;;;;24.40;8.50;;;;;;;1.13;100.00;99608.45;67863;1277;1016391;-59
2023/01/22 01:41:04;;;;;;;23.20;8.50;;;;;;;1.13;100.00;99608.11;67885;1277;1016383;-59
2023/01/22 01:44:06;;;;;;;28.00;9.60;;;;;;;1.20;100.00;99608.21;67867;1277;1017218;-58
2023/01/22 01:47:08;;;;;;;23.00;8.50;;;;;;;1.21;100.00;99609.06;67848;1277;1016452;-59
2023/01/22 01:50:11;;;;;;;26.70;9.90;;;;;;;1.20;100.00;99611.48;67796;1277;1016187;-59
2023/01/22 01:53:13;;;;;;;23.70;8.30;;;;;;;1.19;100.00;99612.36;67780;1277;1015974;-59
2023/01/22 01:56:16;;;;;;;24.60;8.30;;;;;;;1.18;100.00;99614.44;67774;1277;1016587;-58
2023/01/22 01:59:18;;;;;;;24.70;8.50;;;;;;;1.19;100.00;99613.55;67853;1277;1016453;-59
2023/01/22 02:02:20;;;;;;;25.00;9.10;;;;;;;1.12;100.00;99620.19;67841;1277;1016237;-59
2023/01/22 02:05:23;;;;;;;25.40;8.10;;;;;;;1.19;100.00;99622.88;67803;1277;1016036;-59
2023/01/22 02:08:25;;;;;;;24.00;8.50;;;;;;;1.20;100.00;99623.38;67794;1277;1018697;-59
2023/01/22 02:11:28;;;;;;;24.90;8.50;;;;;;;1.28;100.00;99631.91;67800;1277;1017201;-59
2023/01/22 02:14:30;;;;;;;24.50;8.60;;;;;;;1.34;100.00;99630.83;67862;1277;1016275;-59
2023/01/22 02:17:33;;;;;;;27.00;9.50;;;;;;;1.36;100.00;99632.17;67831;1277;1016329;-59
2023/01/22 02:20:35;;;;;;;21.70;7.80;;;;;;;1.33;100.00;99634.10;67775;1277;1016505;-59
2023/01/22 02:23:37;;;;;;;22.90;7.60;;;;;;;1.24;100.00;99634.37;67821;1277;1016367;-59
2023/01/22 02:26:40;;;;;;;23.40;8.10;;;;;;;1.09;100.00;99634.35;67787;1277;1016469;-59
2023/01/22 02:29:42;;;;;;;22.30;7.70;;;;;;;0.99;100.00;99630.81;67787;1277;1017263;-59
2023/01/22 02:32:45;;;;;;;23.90;8.30;;;;;;;0.96;100.00;99636.86;67823;1277;1016355;-58
2023/01/22 02:35:47;;;;;;;24.60;8.80;;;;;;;0.96;100.00;99637.73;67857;1277;1016372;-58
2023/01/22 02:38:49;;;;;;;24.60;8.70;;;;;;;0.85;100.00;99644.70;67771;1278;1017953;-59
2023/01/22 02:41:52;;;;;;;24.10;9.00;;;;;;;0.82;100.00;99646.29;67809;1277;1016429;-59
2023/01/22 02:44:54;;;;;;;24.50;8.30;;;;;;;0.74;100.00;99646.52;67794;1278;1016491;-59
2023/01/22 02:47:57;;;;;;;22.50;8.00;;;;;;;0.69;100.00;99648.11;67836;1277;1015942;-59
2023/01/22 02:50:59;;;;;;;24.10;8.30;;;;;;;0.68;100.00;99649.84;67849;1278;1016426;-59
2023/01/22 02:54:01;;;;;;;23.90;8.10;;;;;;;0.68;100.00;99646.73;67830;1278;1016004;-59
2023/01/22 02:57:04;;;;;;;28.60;9.60;;;;;;;0.71;100.00;99648.08;67814;1277;1016401;-59
2023/01/22 03:00:06;;;;;;;29.70;9.30;;;;;;;0.85;100.00;99654.02;67825;1278;1016305;-59
2023/01/22 03:03:14;;;;;;;25.20;9.10;;;;;;;0.90;100.00;99651.91;67811;1277;1016414;-59
2023/01/22 03:06:20;;;;;;;31.90;10.10;;;;;;;0.94;100.00;99653.59;67821;1277;1016309;-59
2023/01/22 03:09:22;;;;;;;28.70;9.70;;;;;;;0.99;100.00;99656.30;67811;1278;1016255;-59
2023/01/22 03:12:25;;;;;;;31.10;10.60;;;;;;;1.09;100.00;99659.66;67802;1277;1017852;-59
2023/01/22 03:22:07;;;;;;;28.70;11.00;;;;;;;1.47;100.00;99653.08;67830;1278;1016461;-59
2023/01/22 03:25:10;;;;;;;25.00;9.60;;;;;;;1.45;100.00;99649.83;67867;1278;1016166;-59
2023/01/22 03:28:18;;;;;;;28.60;9.20;;;;;;;1.36;100.00;99651.30;67814;1278;1015924;-59
2023/01/22 03:31:20;;;;;;;30.90;10.50;;;;;;;1.23;100.00;99659.70;67823;1277;1015698;-59
2023/01/22 03:34:22;;;;;;;28.70;10.40;;;;;;;1.22;100.00;99657.47;67769;1277;1018006;-59
2023/01/22 03:37:25;;;;;;;25.20;8.80;;;;;;;1.19;100.00;99649.23;67823;1278;1016468;-58
2023/01/22 03:40:27;;;;;;;;;;;;;;;1.12;100.00;99653.95;67855;1278;1016268;-59
2023/01/22 03:43:30;;;;;;;26.50;10.20;;;;;;;1.13;100.00;99652.39;67782;1277;1016172;-59
2023/01/22 03:46:33;;;;;;;27.30;9.90;;;;;;;1.12;100.00;99652.92;67796;1278;1017018;-58
2023/01/22 03:49:36;;;;;;;25.20;9.90;;;;;;;1.08;100.00;99650.20;67830;1278;1016071;-59
2023/01/22 03:52:38;;;;;;;25.70;9.90;;;;;;;0.98;100.00;99646.49;67853;1278;1016343;-60
2023/01/22 03:55:40;;;;;;;28.50;10.40;;;;;;;0.87;100.00;99646.41;67840;1277;1016394;-59
2023/01/22 03:58:43;;;;;;;28.30;10.00;;;;;;;0.91;100.00;99657.25;67783;1277;1016129;-59
2023/01/22 04:01:45;;;;;;;27.40;10.60;;;;;;;0.95;100.00;99657.70;67789;1278;1016438;-59
2023/01/22 04:04:49;;;;;;;27.70;10.00;;;;;;;0.96;100.00;99659.95;67864;1277;1016211;-59
2023/01/22 04:07:51;;;;;;;31.10;13.30;;;;;;;0.97;100.00;99654.94;67802;1278;1016327;-59
2023/01/22 04:10:54;;;;;;;26.30;10.20;;;;;;;1.02;100.00;99652.83;67856;1277;1016473;-58
2023/01/22 04:13:56;;;;;;;30.40;11.30;;;;;;;0.89;100.00;99652.09;67863;1277;1016439;-58
2023/01/22 04:16:58;;;;;;;26.90;10.00;;;;;;;0.87;100.00;99658.12;67864;1277;1016384;-59
2023/01/22 04:20:01;;;;;;;29.90;10.60;;;;;;;0.94;100.00;99660.30;67809;1277;1016574;-59
2023/01/22 04:23:03;;;;;;;31.10;11.60;;;;;;;1.07;100.00;99667.27;67811;1277;1016745;-59
2023/01/22 04:26:06;;;;;;;30.80;11.10;;;;;;;1.18;100.00;99665.43;67823;1278;1016227;-59
2023/01/22 04:29:08;;;;;;;25.90;9.70;;;;;;;1.25;100.00;99663.65;67844;1277;1016397;-59
2023/01/22 04:32:10;;;;;;;27.00;9.60;;;;;;;1.16;100.00;99659.60;67834;1277;1016458;-58
2023/01/22 04:35:13;;;;;;;29.30;11.20;;;;;;;1.09;100.00;99662.59;67853;1277;1016256;-59
2023/01/22 04:38:15;;;;;;;25.90;9.70;;;;;;;1.06;100.00;99662.79;67853;1256;1016546;-59
2023/01/22 04:41:18;;;;;;;30.90;11.00;;;;;;;1.13;100.00;99668.58;67839;1277;1015772;-59
2023/01/22 04:44:20;;;;;;;29.00;10.10;;;;;;;1.17;100.00;99674.93;67836;1277;1018108;-59
2023/01/22 04:47:22;;;;;;;38.40;13.60;;;;;;;1.18;100.00;99672.84;67864;1277;1016558;-59
2023/01/22 04:50:25;;;;;;;26.90;9.60;;;;;;;1.07;100.00;99666.58;67915;1277;1015997;-59
2023/01/22 04:53:27;;;;;;;27.90;9.90;;;;;;;0.94;100.00;99667.71;67827;1277;1016282;-59
2023/01/22 04:56:29;;;;;;;29.50;10.70;;;;;;;0.86;100.00;99670.53;67840;1277;1016493;-59
2023/01/22 04:59:32;;;;;;;35.60;14.20;;;;;;;0.73;100.00;99678.90;67824;1277;1016426;-59
2023/01/22 05:02:34;;;;;;;34.60;12.40;;;;;;;0.71;100.00;99681.67;67839;1277;1016471;-58
2023/01/22 05:05:37;;;;;;;34.20;12.80;;;;;;;0.66;100.00;99684.11;67864;1277;1016155;-59
2023/01/22 05:08:39;;;;;;;35.40;14.10;;;;;;;0.63;100.00;99688.09;67862;1277;1016545;-59
2023/01/22 05:11:41;;;;;;;27.30;10.40;;;;;;;0.55;100.00;99691.75;67847;1277;1016480;-59
2023/01/22 05:14:44;;;;;;;27.90;10.30;;;;;;;0.58;100.00;99692.26;67848;1277;1016443;-59
2023/01/22 05:17:46;;;;;;;26.10;9.90;;;;;;;0.53;100.00;99696.60;67853;1277;1016455;-59
2023/01/22 05:20:49;;;;;;;29.80;11.70;;;;;;;0.54;100.00;99701.73;67860;1277;1016471;-59
2023/01/22 05:23:51;;;;;;;26.50;10.30;;;;;;;0.52;100.00;99707.27;67860;1277;1016326;-59
2023/01/22 05:26:54;;;;;;;27.20;10.40;;;;;;;0.52;100.00;99712.60;67813;1277;1016669;-59
2023/01/22 05:29:56;;;;;;;28.70;10.50;;;;;;;0.48;100.00;99713.48;67767;1277;1016137;-59
2023/01/22 05:32:58;;;;;;;28.10;10.20;;;;;;;0.47;100.00;99713.15;67840;1277;1016595;-59
2023/01/22 05:36:01;;;;;;;28.70;10.80;;;;;;;0.55;100.00;99716.89;67848;1277;1016227;-59
2023/01/22 05:39:03;;;;;;;23.90;9.50;;;;;;;0.53;100.00;99716.72;67882;1277;1016452;-59
2023/01/22 05:42:06;;;;;;;24.90;9.00;;;;;;;0.48;100.00;99717.43;67836;1277;1016553;-59
2023/01/22 05:45:09;;;;;;;23.60;8.70;;;;;;;0.44;100.00;99708.52;67832;1277;1016528;-59
2023/01/22 05:48:11;;;;;;;24.70;8.90;;;;;;;0.38;100.00;99714.91;67874;1277;1016410;-59
2023/01/22 05:51:13;;;;;;;25.10;9.40;;;;;;;0.35;100.00;99711.84;67872;1277;1016263;-59
2023/01/22 05:54:16;;;;;;;25.10;8.90;;;;;;;0.32;100.00;99717.35;67891;1277;1016302;-59
2023/01/22 05:57:18;;;;;;;24.60;8.40;;;;;;;0.40;100.00;99723.16;67816;1278;1016365;-59
2023/01/22 06:00:21;;;;;;;23.20;8.00;;;;;;;0.45;100.00;99731.56;67768;1277;1016233;-59
2023/01/22 06:03:23;;;;;;;24.90;8.50;;;;;;;0.50;100.00;99730.85;67829;1277;1016866;-59
2023/01/22 06:06:25;;;;;;;23.70;8.60;;;;;;;0.51;100.00;99730.85;67751;1278;1016151;-59
2023/01/22 06:09:28;;;;;;;25.10;8.90;;;;;;;0.50;100.00;99726.04;67794;1278;1016282;-59
2023/01/22 06:12:30;;;;;;;22.90;8.20;;;;;;;0.49;100.00;99727.42;67825;1278;1016417;-59
2023/01/22 06:15:32;;;;;;;26.50;10.30;;;;;;;0.47;100.00;99734.31;67825;1278;1015804;-59
2023/01/22 06:18:35;;;;;;;25.30;9.60;;;;;;;0.48;100.00;99737.76;67825;1278;1016252;-59
2023/01/22 06:21:37;;;;;;;26.30;10.50;;;;;;;0.49;100.00;99736.89;67818;1277;1016298;-59
2023/01/22 06:24:40;;;;;;;27.70;11.00;;;;;;;0.58;100.00;99737.86;67724;1277;1015980;-59
2023/01/22 06:27:42;;;;;;;26.00;10.70;;;;;;;0.65;100.00;99744.55;67866;1278;1016364;-59
2023/01/22 06:30:44;;;;;;;26.20;9.30;;;;;;;0.68;100.00;99750.20;67872;1277;1018515;-59
2023/01/22 06:33:47;;;;;;;24.30;9.20;;;;;;;0.62;100.00;99751.45;67827;1277;1016279;-59
2023/01/22 06:36:50;;;;;;;24.70;7.80;;;;;;;0.63;100.00;99752.64;67843;1277;1016192;-59
2023/01/22 06:39:52;;;;;;;24.80;8.90;;;;;;;0.60;100.00;99759.54;67873;1277;1016503;-59
2023/01/22 06:42:56;;;;;;;26.30;8.60;;;;;;;0.54;100.00;99766.81;67799;1278;1016317;-59
2023/01/22 06:45:58;;;;;;;23.30;7.70;;;;;;;0.48;100.00;99768.55;67833;1278;1016479;-59
2023/01/22 06:49:01;;;;;;;33.00;12.10;;;;;;;0.46;100.00;99776.14;67758;1277;1016338;-59
2023/01/22 06:52:03;;;;;;;;;;;;;;;0.43;100.00;99775.98;67707;1278;1016488;-59
2023/01/22 06:55:06;;;;;;;30.00;12.10;;;;;;;0.44;100.00;99773.73;67834;1277;1016549;-59
2023/01/22 06:58:08;;;;;;;27.30;10.70;;;;;;;0.49;100.00;99778.52;67844;1277;1017309;-59
2023/01/22 07:01:11;;;;;;;24.80;9.00;;;;;;;0.52;100.00;99784.20;67858;1278;1016516;-59
2023/01/22 07:04:13;;;;;;;25.90;9.70;;;;;;;0.54;100.00;99786.09;67837;1278;1016495;-59
2023/01/22 07:07:15;;;;;;;22.20;7.70;;;;;;;0.56;100.00;99788.14;67817;1278;1016422;-59
2023/01/22 07:10:18;;;;;;;27.40;9.10;;;;;;;0.63;100.00;99795.00;67780;1278;1016806;-59
2023/01/22 07:13:20;;;;;;;29.50;11.50;;;;;;;0.65;100.00;99799.97;67836;1278;1016014;-59
2023/01/22 07:16:23;;;;;;;25.40;9.60;;;;;;;0.71;100.00;99800.98;67845;1278;1016450;-59
2023/01/22 07:19:25;;;;;;;24.40;9.10;;;;;;;0.68;100.00;99805.65;67812;1278;1016301;-59
2023/01/22 07:22:27;;;;;;;76.40;38.20;;;;;;;0.71;100.00;99811.14;67808;1278;1016395;-59
2023/01/22 07:25:30;;;;;;;21.80;8.20;;;;;;;0.80;100.00;99811.61;67819;1277;1016456;-59
2023/01/22 07:28:32;;;;;;;29.30;15.50;;;;;;;0.84;100.00;99809.00;67798;1278;1016346;-59
2023/01/22 07:31:35;;;;;;;41.60;30.70;;;;;;;0.83;100.00;99817.45;67837;1278;1016457;-59
2023/01/22 07:34:37;;;;;;;68.20;32.70;;;;;;;0.93;100.00;99817.39;67831;1278;1016263;-59
2023/01/22 07:37:39;;;;;;;44.50;20.00;;;;;;;1.07;100.00;99816.79;67808;1278;1016485;-59
2023/01/22 07:40:42;;;;;;;29.10;11.40;;;;;;;1.13;100.00;99820.36;67782;1278;1016419;-59
2023/01/22 07:43:44;;;;;;;57.00;25.50;;;;;;;1.20;100.00;99826.17;67819;1278;1016213;-59
2023/01/22 07:46:47;;;;;;;28.30;9.60;;;;;;;1.30;100.00;99835.23;67795;1277;1016490;-59
2023/01/22 07:49:49;;;;;;;22.40;7.90;;;;;;;1.37;100.00;99837.95;67818;1278;1016510;-58
2023/01/22 07:52:51;;;;;;;22.50;7.60;;;;;;;1.52;100.00;99841.80;67849;1278;1016291;-59
2023/01/22 07:55:54;;;;;;;21.70;7.30;;;;;;;1.62;100.00;99846.73;67802;1277;1016394;-59
2023/01/22 07:58:56;;;;;;;20.50;6.80;;;;;;;1.63;100.00;99839.46;67794;1277;1016487;-59
2023/01/22 08:01:59;;;;;;;35.80;13.50;;;;;;;1.68;100.00;99835.80;67846;1277;1016416;-59
2023/01/22 08:05:01;;;;;;;26.20;9.30;;;;;;;1.73;100.00;99829.89;67850;1277;1016469;-59
2023/01/22 08:08:03;;;;;;;23.20;8.30;;;;;;;1.85;100.00;99830.30;67867;1278;1016084;-59
2023/01/22 08:11:06;;;;;;;22.90;6.70;;;;;;;1.87;100.00;99833.04;67808;1278;1018282;-59
2023/01/22 08:14:08;;;;;;;22.90;7.20;;;;;;;1.95;100.00;99836.60;67796;1278;1016250;-59
2023/01/22 08:17:11;;;;;;;22.20;7.60;;;;;;;2.09;100.00;99838.20;67805;1277;1016764;-59
2023/01/22 08:20:13;;;;;;;20.50;6.90;;;;;;;2.17;100.00;99835.51;67796;1278;1016481;-59
2023/01/22 08:23:15;;;;;;;21.70;6.20;;;;;;;2.18;100.00;99836.89;67820;1278;1016474;-59
2023/01/22 08:26:18;;;;;;;22.50;7.60;;;;;;;2.22;100.00;99839.61;67871;1278;1016158;-59
2023/01/22 08:29:20;;;;;;;25.70;9.10;;;;;;;2.20;100.00;99838.77;67799;1278;1019265;-59
2023/01/22 08:32:23;;;;;;;23.50;7.50;;;;;;;2.20;100.00;99843.77;67763;1277;1016275;-59
2023/01/22 08:35:25;;;;;;;27.70;9.60;;;;;;;2.19;100.00;99851.55;67841;1277;1016028;-59
2023/01/22 08:38:28;;;;;;;32.40;10.70;;;;;;;2.10;100.00;99848.88;67868;1263;1016317;-58
2023/01/22 08:41:30;;;;;;;33.20;12.00;;;;;;;1.92;100.00;99847.14;67837;1278;1016102;-59
2023/01/22 08:44:33;;;;;;;37.40;14.20;;;;;;;1.84;100.00;99849.30;67793;1278;1016381;-59
2023/01/22 08:47:35;;;;;;;29.10;10.90;;;;;;;1.81;100.00;99853.63;67827;1278;1016210;-59
2023/01/22 08:50:37;;;;;;;38.90;14.60;;;;;;;1.71;100.00;99854.40;67847;1277;1018006;-59
2023/01/22 08:53:40;;;;;;;29.40;10.30;;;;;;;1.65;100.00;99862.05;67815;1278;1016280;-59
2023/01/22 08:56:42;;;;;;;27.40;10.00;;;;;;;1.53;100.00;99860.07;67856;1278;1016432;-59
2023/01/22 08:59:45;;;;;;;31.50;11.60;;;;;;;1.51;100.00;99861.64;67805;1277;1015972;-59
2023/01/22 09:02:47;;;;;;;31.00;11.60;;;;;;;1.55;100.00;99856.42;67809;1277;1016471;-59
2023/01/22 09:05:50;;;;;;;23.90;9.00;;;;;;;1.61;100.00;99856.55;67829;1278;1016387;-59
2023/01/22 09:08:53;;;;;;;28.30;9.90;;;;;;;1.70;100.00;99852.86;67849;1278;1016371;-59
2023/01/22 09:11:55;;;;;;;25.80;9.00;;;;;;;1.78;100.00;99852.80;67782;1277;1016511;-59
2023/01/22 09:14:58;;;;;;;25.50;8.70;;;;;;;1.82;100.00;99850.69;67813;1278;1016502;-59
2023/01/22 09:18:00;;;;;;;25.90;9.40;;;;;;;1.86;100.00;99853.24;67824;1277;1016258;-59
2023/01/22 09:21:03;;;;;;;27.40;10.00;;;;;;;1.94;100.00;99853.17;67870;1277;1016469;-59
2023/01/22 09:24:05;;;;;;;26.50;9.50;;;;;;;1.92;100.00;99852.16;67867;1278;1018173;-59
2023/01/22 09:27:08;;;;;;;27.50;10.40;;;;;;;1.96;100.00;99847.80;67783;1277;1016215;-59
2023/01/22 09:30:13;;;;;;;28.80;10.70;;;;;;;2.11;100.00;99844.38;67872;1277;1016480;-59
2023/01/22 09:33:15;;;;;;;26.60;9.90;;;;;;;2.28;100.00;99847.14;67843;1278;1016436;-59
2023/01/22 09:36:18;;;;;;;26.40;9.80;;;;;;;2.37;100.00;99845.48;67824;1277;1016460;-59
2023/01/22 09:39:20;;;;;;;35.40;13.80;;;;;;;2.35;100.00;99847.76;67812;1278;1016320;-59
2023/01/22 09:42:23;;;;;;;43.80;18.20;;;;;;;2.27;100.00;99848.52;67838;1277;1016481;-59
2023/01/22 09:45:25;;;;;;;53.90;23.10;;;;;;;2.20;100.00;99847.05;67883;1278;1016266;-59
2023/01/22 09:48:27;;;;;;;33.20;13.90;;;;;;;2.21;100.00;99843.23;67823;1278;1016382;-59
2023/01/22 09:51:30;;;;;;;30.40;11.00;;;;;;;2.14;100.00;99841.95;67827;1277;1016553;-59
2023/01/22 09:54:32;;;;;;;36.60;15.10;;;;;;;2.02;100.00;99840.50;67823;1278;1016292;-59
2023/01/22 09:57:35;;;;;;;37.60;16.30;;;;;;;2.01;100.00;99840.34;67828;1277;1016449;-59
2023/01/22 10:00:37;;;;;;;33.60;13.90;;;;;;;2.18;100.00;99840.86;67889;1278;1016351;-59
2023/01/22 10:03:40;;;;;;;30.60;12.50;;;;;;;2.27;100.00;99834.89;67886;1277;1016367;-59
2023/01/22 10:06:44;;;;;;;99.30;51.40;;;;;;;2.23;100.00;99834.59;67802;1277;1016420;-59
2023/01/22 10:09:49;;;;;;;36.50;14.50;;;;;;;2.28;100.00;99836.77;67802;1277;1016392;-59
2023/01/22 10:12:51;;;;;;;29.50;11.80;;;;;;;2.34;100.00;99836.89;67834;1277;1016493;-59
2023/01/22 10:15:53;;;;;;;55.10;26.50;;;;;;;2.41;100.00;99834.73;67799;1277;1016727;-59
2023/01/22 10:18:56;;;;;;;29.00;11.20;;;;;;;2.47;100.00;99833.13;67832;1277;1018667;-59
2023/01/22 10:21:58;;;;;;;29.60;10.70;;;;;;;2.47;100.00;99828.46;67815;1277;1016450;-59
2023/01/22 10:25:01;;;;;;;29.00;11.40;;;;;;;2.38;100.00;99824.92;67836;1277;1018324;-59
2023/01/22 10:28:03;;;;;;;31.60;12.10;;;;;;;2.30;100.00;99823.80;67843;1277;1016266;-59
2023/01/22 10:31:05;;;;;;;42.80;17.30;;;;;;;2.37;100.00;99827.88;67811;1277;1016233;-60
2023/01/22 10:34:08;;;;;;;45.70;19.70;;;;;;;2.38;100.00;99827.00;67851;1277;1016376;-59
2023/01/22 10:37:10;;;;;;;40.90;16.40;;;;;;;2.39;100.00;99829.39;67780;1277;1016846;-59
2023/01/22 10:40:13;;;;;;;33.40;12.10;;;;;;;2.40;100.00;99828.18;67766;1277;1016429;-59
2023/01/22 10:43:16;;;;;;;61.00;24.80;;;;;;;2.36;100.00;99821.84;67831;1277;1016153;-59
2023/01/22 10:46:19;;;;;;;33.90;13.10;;;;;;;2.43;100.00;99822.11;67850;1278;1016272;-59
2023/01/22 10:49:21;;;;;;;42.00;15.80;;;;;;;2.45;100.00;99820.70;67833;1277;1016476;-59
2023/01/22 10:52:24;;;;;;;40.00;16.00;;;;;;;2.37;100.00;99815.61;67824;1278;1016422;-59
2023/01/22 10:55:26;;;;;;;38.60;15.90;;;;;;;2.33;100.00;99816.69;67848;1277;1016325;-58
2023/01/22 10:58:29;;;;;;;34.10;13.80;;;;;;;2.32;100.00;99817.92;67793;1277;1016483;-59
2023/01/22 11:01:31;;;;;;;56.80;20.80;;;;;;;2.32;100.00;99811.36;67826;1277;1016514;-59
2023/01/22 11:04:34;;;;;;;;;;;;;;;2.30;100.00;99808.27;67861;1277;1016963;-59
2023/01/22 11:07:37;;;;;;;51.70;22.00;;;;;;;2.30;100.00;99808.61;67790;1277;1016506;-59
2023/01/22 11:10:39;;;;;;;67.60;24.00;;;;;;;2.31;100.00;99806.36;67800;1277;1017704;-59
2023/01/22 11:13:42;;;;;;;33.40;12.70;;;;;;;2.33;100.00;99807.21;67858;1277;1016216;-59
2023/01/22 11:16:44;;;;;;;48.30;18.60;;;;;;;2.28;100.00;99807.78;67849;1277;1016349;-59
2023/01/22 11:19:46;;;;;;;56.80;20.20;;;;;;;2.24;100.00;99805.41;67838;1277;1016571;-59
2023/01/22 11:22:49;;;;;;;45.90;17.20;;;;;;;2.25;100.00;99802.12;67802;1277;1016047;-59
2023/01/22 11:25:52;;;;;;;71.80;26.00;;;;;;;2.31;100.00;99806.72;67865;1277;1016401;-59
2023/01/22 11:28:54;;;;;;;81.70;29.70;;;;;;;2.42;100.00;99798.98;67846;1277;1016435;-59
2023/01/22 11:31:57;;;;;;;61.40;23.00;;;;;;;2.53;100.00;99800.74;67781;1277;1016521;-59
2023/01/22 11:34:59;;;;;;;43.30;16.70;;;;;;;2.54;100.00;99800.21;67797;1278;1016278;-59
2023/01/22 11:38:02;;;;;;;33.50;13.00;;;;;;;2.61;100.00;99797.73;67833;1277;1016478;-59
2023/01/22 11:41:05;;;;;;;45.40;21.90;;;;;;;2.66;100.00;99793.69;67856;1277;1016454;-59
2023/01/22 11:44:07;;;;;;;33.00;13.70;;;;;;;2.74;100.00;99798.58;67800;1277;1016432;-59
2023/01/22 11:47:09;;;;;;;87.30;34.30;;;;;;;2.74;100.00;99806.02;67794;1278;1016410;-59
2023/01/22 11:50:12;;;;;;;150.70;58.70;;;;;;;2.84;100.00;99808.30;67836;1277;1017495;-59
2023/01/22 11:53:14;;;;;;;35.70;14.20;;;;;;;3.00;100.00;99816.89;67854;1277;1016344;-59
2023/01/22 11:56:16;;;;;;;111.00;53.50;;;;;;;3.15;100.00;99818.21;67870;1277;1015896;-59
2023/01/22 11:59:19;;;;;;;55.10;22.40;;;;;;;3.30;100.00;99819.20;67788;1277;1016728;-59
2023/01/22 12:02:21;;;;;;;47.20;18.00;;;;;;;3.28;100.00;99815.42;67783;1277;1016183;-59
2023/01/22 12:05:24;;;;;;;64.30;29.70;;;;;;;3.12;100.00;99818.61;67759;1277;1016435;-59
2023/01/22 12:08:26;;;;;;;44.90;18.80;;;;;;;3.00;100.00;99818.27;67799;1277;1016457;-60
2023/01/22 12:11:28;;;;;;;38.40;15.10;;;;;;;2.98;100.00;99815.70;65242;1277;6386933;-59
2023/01/22 12:14:31;;;;;;;32.70;12.50;;;;;;;2.85;100.00;99819.15;67818;1277;1016180;-59
2023/01/22 12:17:33;;;;;;;62.50;24.80;;;;;;;2.75;100.00;99820.85;67851;1277;1016470;-59
2023/01/22 12:20:36;;;;;;;41.00;16.40;;;;;;;2.76;100.00;99826.20;67830;1277;1016947;-59
2023/01/22 12:23:38;;;;;;;46.20;19.50;;;;;;;2.82;100.00;99824.20;67857;1277;1017090;-59
2023/01/22 12:26:41;;;;;;;37.80;14.30;;;;;;;2.95;100.00;99822.48;67854;1277;1016615;-59
2023/01/22 12:29:43;;;;;;;43.50;18.30;;;;;;;2.95;100.00;99833.20;67802;1277;1016446;-59
2023/01/22 12:32:45;;;;;;;32.10;12.30;;;;;;;3.13;100.00;99837.44;67817;1278;1016502;-59
2023/01/22 12:35:48;;;;;;;33.40;14.00;;;;;;;3.32;100.00;99832.50;67803;1277;1016387;-59
2023/01/22 12:38:50;;;;;;;46.10;18.30;;;;;;;3.47;100.00;99830.35;67846;1277;1016427;-59
2023/01/22 12:41:53;;;;;;;57.80;22.50;;;;;;;3.36;100.00;99828.45;67863;1277;1016525;-59
2023/01/22 12:44:55;;;;;;;55.20;22.30;;;;;;;3.31;100.00;99831.98;67867;1278;1016494;-59
2023/01/22 12:47:57;;;;;;;36.90;15.80;;;;;;;3.31;100.00;99845.30;67708;1277;1016154;-59
2023/01/22 12:51:00;;;;;;;44.10;17.70;;;;;;;3.34;100.00;99845.25;67801;1278;1016481;-59
2023/01/22 12:54:02;;;;;;;33.60;13.80;;;;;;;3.37;100.00;99848.50;67808;1277;1016321;-59
2023/01/22 12:57:05;;;;;;;37.40;15.40;;;;;;;3.34;100.00;99849.73;67866;1277;1016251;-59
2023/01/22 13:00:07;;;;;;;46.10;19.10;;;;;;;3.23;100.00;99848.54;67864;1277;1016361;-58
2023/01/22 13:03:10;;;;;;;39.00;15.90;;;;;;;3.06;100.00;99850.85;67776;1277;1015962;-59
2023/01/22 13:06:12;;;;;;;38.20;15.20;;;;;;;2.90;100.00;99852.09;67823;1277;1016418;-59
2023/01/22 13:09:14;;;;;;;51.10;20.00;;;;;;;2.72;100.00;99858.19;67833;1277;1017272;-59
2023/01/22 13:12:17;;;;;;;52.10;21.90;;;;;;;2.70;100.00;99856.49;67839;1277;1016517;-59
2023/01/22 13:15:19;;;;;;;42.00;19.10;;;;;;;2.68;100.00;99858.42;67829;1277;1016912;-59
2023/01/22 13:18:22;;;;;;;41.50;18.10;;;;;;;2.68;100.00;99863.77;67880;1277;1015823;-59
2023/01/22 13:21:24;;;;;;;41.90;18.10;;;;;;;2.71;100.00;99868.22;67832;1277;1016961;-59
2023/01/22 13:24:27;;;;;;;77.70;34.20;;;;;;;2.70;100.00;99867.90;67813;1277;1016837;-59
2023/01/22 13:27:29;;;;;;;46.40;18.30;;;;;;;2.65;100.00;99870.89;67843;1277;1016296;-59
2023/01/22 13:30:32;;;;;;;46.10;20.10;;;;;;;2.62;100.00;99874.20;67870;1277;1016346;-59
2023/01/22 13:33:34;;;;;;;39.60;16.50;;;;;;;2.59;100.00;99875.80;67855;1277;1016296;-59
2023/01/22 13:36:36;;;;;;;34.00;14.50;;;;;;;2.49;100.00;99876.93;67796;1278;1016423;-59
2023/01/22 13:39:39;;;;;;;33.80;13.60;;;;;;;2.45;100.00;99875.44;67804;1278;1015911;-59
2023/01/22 13:42:41;;;;;;;36.10;13.80;;;;;;;2.42;100.00;99877.20;67841;1278;1016480;-59
2023/01/22 13:45:44;;;;;;;36.20;15.60;;;;;;;2.36;100.00;99880.54;67755;1278;1016458;-59
2023/01/22 13:48:46;;;;;;;51.10;20.10;;;;;;;2.36;100.00;99883.64;67822;1278;1016375;-59
2023/01/22 13:51:49;;;;;;;35.30;14.80;;;;;;;2.29;100.00;99885.96;67810;1278;1016477;-59